createdAt,value
2022-11-06T00:00:32.195Z,60.80
2022-11-06T00:03:00.871Z,60.70
2022-11-06T00:05:48.151Z,60.70
2022-11-06T00:08:16.807Z,60.70
2022-11-06T00:10:44.475Z,60.70
2022-11-06T00:13:11.771Z,60.70
2022-11-06T00:15:39.235Z,60.60
2022-11-06T00:18:06.775Z,60.60
2022-11-06T00:20:34.508Z,60.70
2022-11-06T00:23:02.080Z,60.70
2022-11-06T00:25:29.581Z,60.60
2022-11-06T00:27:57.202Z,60.60
2022-11-06T00:30:25.248Z,60.60
2022-11-06T00:32:52.776Z,60.60
2022-11-06T00:35:20.332Z,60.60
2022-11-06T00:37:47.897Z,60.50
2022-11-06T00:40:15.543Z,60.40
2022-11-06T00:42:43.045Z,60.40
2022-11-06T00:45:10.728Z,60.40
2022-11-06T00:47:38.142Z,60.50
2022-11-06T00:50:06.352Z,60.60
2022-11-06T00:52:33.888Z,60.60
2022-11-06T00:55:02.495Z,60.60
2022-11-06T00:57:30.274Z,60.60
2022-11-06T00:59:57.884Z,60.70
2022-11-06T01:02:25.342Z,60.60
2022-11-06T01:04:52.975Z,60.60
2022-11-06T01:07:20.497Z,60.70
2022-11-06T01:09:47.873Z,60.60
2022-11-06T01:12:15.386Z,60.70
2022-11-06T01:14:44.164Z,60.80
2022-11-06T01:17:12.472Z,60.70
2022-11-06T01:19:40.577Z,60.80
2022-11-06T01:22:08.129Z,60.90
2022-11-06T01:24:35.663Z,60.80
2022-11-06T01:29:50.790Z,60.80
2022-11-06T01:32:18.489Z,60.80
2022-11-06T01:34:46.998Z,60.70
2022-11-06T01:37:15.060Z,60.70
2022-11-06T01:39:42.860Z,60.90
2022-11-06T01:42:15.044Z,60.90
2022-11-06T01:44:45.318Z,60.70
2022-11-06T01:47:26.083Z,60.80
2022-11-06T01:49:58.558Z,60.80
2022-11-06T01:52:27.670Z,60.80
2022-11-06T01:55:00.695Z,60.80
2022-11-06T01:57:28.302Z,60.80
2022-11-06T01:59:56.490Z,60.60
2022-11-06T02:02:24.732Z,60.50
2022-11-06T02:04:52.293Z,60.70
2022-11-06T02:07:21.258Z,60.70
2022-11-06T02:09:48.685Z,60.70
2022-11-06T02:12:53.453Z,60.70
2022-11-06T02:15:54.661Z,60.70
2022-11-06T02:19:12.538Z,60.80
2022-11-06T02:22:35.395Z,60.80
2022-11-06T02:25:29.763Z,60.80
2022-11-06T02:28:27.088Z,60.80
2022-11-06T02:30:58.882Z,60.80
2022-11-06T02:33:35.919Z,60.80
2022-11-06T02:36:16.628Z,60.80
2022-11-06T02:38:59.628Z,60.90
2022-11-06T02:41:34.638Z,60.80
2022-11-06T02:44:07.391Z,60.80
2022-11-06T02:46:46.792Z,60.90
2022-11-06T02:49:40.677Z,60.90
2022-11-06T02:52:29.648Z,60.90
2022-11-06T02:55:30.214Z,60.90
2022-11-06T02:58:08.696Z,60.90
2022-11-06T03:00:38.312Z,60.80
2022-11-06T03:03:15.079Z,60.80
2022-11-06T03:06:14.757Z,60.80
2022-11-06T03:08:59.712Z,60.70
2022-11-06T03:11:33.735Z,60.80
2022-11-06T03:14:13.747Z,60.70
2022-11-06T03:17:11.090Z,60.80
2022-11-06T03:20:04.710Z,60.80
2022-11-06T03:22:49.255Z,60.90
2022-11-06T03:26:11.670Z,60.90
2022-11-06T03:28:54.355Z,60.80
2022-11-06T03:31:41.062Z,60.90
2022-11-06T03:34:15.549Z,60.90
2022-11-06T03:36:50.203Z,60.90
2022-11-06T03:39:29.304Z,61.00
2022-11-06T03:42:15.581Z,60.90
2022-11-06T03:44:51.918Z,60.90
2022-11-06T03:47:37.350Z,60.90
2022-11-06T03:50:24.409Z,61.00
2022-11-06T03:52:57.561Z,61.00
2022-11-06T03:55:42.947Z,61.10
2022-11-06T03:58:19.700Z,61.00
2022-11-06T04:00:48.061Z,61.00
2022-11-06T04:03:39.929Z,61.10
2022-11-06T04:06:35.796Z,61.10
2022-11-06T04:09:25.677Z,61.10
2022-11-06T04:12:12.851Z,61.10
2022-11-06T04:14:45.664Z,61.10
2022-11-06T04:17:14.738Z,61.10
2022-11-06T04:20:08.215Z,61.10
2022-11-06T04:22:55.617Z,61.20
2022-11-06T04:26:04.383Z,61.10
2022-11-06T04:29:03.404Z,61.20
2022-11-06T04:32:02.438Z,61.10
2022-11-06T04:35:13.038Z,61.20
2022-11-06T04:38:20.596Z,61.50
2022-11-06T04:41:22.553Z,61.20
2022-11-06T04:44:14.694Z,61.20
2022-11-06T04:46:53.633Z,61.20
2022-11-06T04:49:23.899Z,61.20
2022-11-06T04:51:52.303Z,61.30
2022-11-06T04:54:20.212Z,61.30
2022-11-06T04:56:47.837Z,61.30
2022-11-06T04:59:17.982Z,61.20
2022-11-06T05:01:46.916Z,61.30
2022-11-06T05:04:14.779Z,61.20
2022-11-06T05:06:42.229Z,61.30
2022-11-06T05:09:09.791Z,61.30
2022-11-06T05:11:38.683Z,61.30
2022-11-06T05:14:06.316Z,61.30
2022-11-06T05:16:33.924Z,61.40
2022-11-06T05:19:01.342Z,61.40
2022-11-06T05:21:47.526Z,61.40
2022-11-06T05:24:15.031Z,61.70
2022-11-06T05:26:42.533Z,61.50
2022-11-06T05:29:12.079Z,61.40
2022-11-06T05:31:39.729Z,61.50
2022-11-06T05:34:07.438Z,61.50
2022-11-06T05:36:37.430Z,61.50
2022-11-06T05:39:04.978Z,61.50
2022-11-06T05:41:32.433Z,61.50
2022-11-06T05:44:00.067Z,61.50
2022-11-06T05:46:47.717Z,61.50
2022-11-06T05:49:15.346Z,61.40
2022-11-06T05:51:42.792Z,61.50
2022-11-06T05:54:10.256Z,61.40
2022-11-06T05:56:37.921Z,61.60
2022-11-06T05:59:05.537Z,61.60
2022-11-06T06:01:33.285Z,61.60
2022-11-06T06:04:01.103Z,61.50
2022-11-06T06:06:28.829Z,61.50
2022-11-06T06:08:56.207Z,61.50
2022-11-06T06:11:23.600Z,61.40
2022-11-06T06:13:51.028Z,61.40
2022-11-06T06:16:18.684Z,61.40
2022-11-06T06:18:50.044Z,61.30
2022-11-06T06:21:18.307Z,61.40
2022-11-06T06:23:45.799Z,61.40
2022-11-06T06:26:13.267Z,61.50
2022-11-06T06:28:40.919Z,61.50
2022-11-06T06:31:10.010Z,61.50
2022-11-06T06:33:37.768Z,61.50
2022-11-06T06:36:06.542Z,61.50
2022-11-06T06:38:34.025Z,61.50
2022-11-06T06:41:07.152Z,61.40
2022-11-06T06:43:35.998Z,61.50
2022-11-06T06:46:06.559Z,61.40
2022-11-06T06:48:34.298Z,61.40
2022-11-06T06:51:03.436Z,61.30
2022-11-06T06:53:32.041Z,61.40
2022-11-06T06:56:00.954Z,61.40
2022-11-06T06:58:32.005Z,61.40
2022-11-06T07:01:05.049Z,61.40
2022-11-06T07:03:33.135Z,61.40
2022-11-06T07:06:00.608Z,61.40
2022-11-06T07:08:28.876Z,62.10
2022-11-06T07:11:10.543Z,61.40
2022-11-06T07:13:38.344Z,61.40
2022-11-06T07:16:10.198Z,61.30
2022-11-06T07:18:38.946Z,61.40
2022-11-06T07:21:12.613Z,61.40
2022-11-06T07:23:40.621Z,61.40
2022-11-06T07:26:09.192Z,61.40
2022-11-06T07:28:36.959Z,61.40
2022-11-06T07:31:07.453Z,61.60
2022-11-06T07:33:36.180Z,61.60
2022-11-06T07:36:12.375Z,61.50
2022-11-06T07:38:42.484Z,61.60
2022-11-06T07:41:14.192Z,61.60
2022-11-06T07:43:42.915Z,61.60
2022-11-06T07:46:12.958Z,61.70
2022-11-06T07:48:40.556Z,61.70
2022-11-06T07:51:10.847Z,61.70
2022-11-06T07:53:38.876Z,61.90
2022-11-06T07:56:06.959Z,61.90
2022-11-06T07:58:34.833Z,61.90
2022-11-06T08:01:03.017Z,62.00
2022-11-06T08:03:30.668Z,62.00
2022-11-06T08:06:05.460Z,62.00
2022-11-06T08:08:33.466Z,61.90
2022-11-06T08:11:10.499Z,61.80
2022-11-06T08:13:38.797Z,61.80
2022-11-06T08:16:06.782Z,61.90
2022-11-06T08:18:35.088Z,61.90
2022-11-06T08:21:03.273Z,62.00
2022-11-06T08:23:30.758Z,61.90
2022-11-06T08:26:01.413Z,61.90
2022-11-06T08:28:29.259Z,61.80
2022-11-06T08:30:56.806Z,62.00
2022-11-06T08:33:24.723Z,61.80
2022-11-06T08:35:52.020Z,61.90
2022-11-06T08:38:20.177Z,62.40
2022-11-06T08:40:53.234Z,61.60
2022-11-06T08:43:24.446Z,61.60
2022-11-06T08:45:52.528Z,61.70
2022-11-06T08:48:20.037Z,61.60
2022-11-06T08:50:47.641Z,61.80
2022-11-06T08:53:15.638Z,61.80
2022-11-06T08:55:43.422Z,61.80
2022-11-06T08:58:11.080Z,61.70
2022-11-06T09:00:38.817Z,61.70
2022-11-06T09:03:10.639Z,61.70
2022-11-06T09:05:43.878Z,61.70
2022-11-06T09:08:12.910Z,61.90
2022-11-06T09:10:42.992Z,62.00
2022-11-06T09:13:11.787Z,62.30
2022-11-06T09:15:40.216Z,62.20
2022-11-06T09:18:08.588Z,62.20
2022-11-06T09:20:36.460Z,62.40
2022-11-06T09:23:07.302Z,62.40
2022-11-06T09:25:34.860Z,62.50
2022-11-06T09:28:02.381Z,62.40
2022-11-06T09:30:32.373Z,62.30
2022-11-06T09:33:02.218Z,62.40
2022-11-06T09:35:33.238Z,62.60
2022-11-06T09:38:06.523Z,62.60
2022-11-06T09:40:44.644Z,62.80
2022-11-06T09:44:03.417Z,62.80
2022-11-06T09:46:49.208Z,62.80
2022-11-06T09:49:31.627Z,62.90
2022-11-06T09:52:12.802Z,62.90
2022-11-06T09:55:05.764Z,62.90
2022-11-06T09:57:42.439Z,63.00
2022-11-06T10:00:16.356Z,62.90
2022-11-06T10:02:50.179Z,62.90
2022-11-06T10:05:36.370Z,63.00
2022-11-06T10:08:11.200Z,62.90
2022-11-06T10:11:23.196Z,63.00
2022-11-06T10:14:25.713Z,62.90
2022-11-06T10:17:19.206Z,62.90
2022-11-06T10:20:32.182Z,63.00
2022-11-06T10:23:30.545Z,63.00
2022-11-06T10:26:12.503Z,62.90
2022-11-06T10:29:19.067Z,62.90
2022-11-06T10:32:25.606Z,63.00
2022-11-06T10:35:24.378Z,63.20
2022-11-06T10:37:59.530Z,63.00
2022-11-06T10:40:30.832Z,63.00
2022-11-06T10:43:14.901Z,63.00
2022-11-06T10:45:47.563Z,62.90
2022-11-06T10:48:47.275Z,63.10
2022-11-06T10:51:41.960Z,63.30
2022-11-06T10:54:51.220Z,63.30
2022-11-06T10:57:29.170Z,63.30
2022-11-06T10:59:56.731Z,63.10
2022-11-06T11:02:34.934Z,63.00
2022-11-06T11:05:02.637Z,63.60
2022-11-06T11:07:35.269Z,63.30
2022-11-06T11:10:32.334Z,63.20
2022-11-06T11:13:08.139Z,63.10
2022-11-06T11:15:46.852Z,63.10
2022-11-06T11:18:20.078Z,63.00
2022-11-06T11:20:50.688Z,62.90
2022-11-06T11:23:25.194Z,63.10
2022-11-06T11:25:55.537Z,63.00
2022-11-06T11:28:33.257Z,62.80
2022-11-06T11:31:15.516Z,62.90
2022-11-06T11:33:52.033Z,63.00
2022-11-06T11:36:19.638Z,62.90
2022-11-06T11:38:47.908Z,62.70
2022-11-06T11:41:24.685Z,62.60
2022-11-06T11:44:17.623Z,62.60
2022-11-06T11:46:55.354Z,62.50
2022-11-06T11:49:35.029Z,62.50
2022-11-06T11:52:05.495Z,62.50
2022-11-06T11:54:35.826Z,62.50
2022-11-06T11:57:11.573Z,62.40
2022-11-06T12:00:22.744Z,62.40
2022-11-06T12:03:03.802Z,62.30
2022-11-06T12:05:39.073Z,62.20
2022-11-06T12:16:47.697Z,62.10
2022-11-06T12:19:49.843Z,62.10
2022-11-06T12:22:56.557Z,62.10
2022-11-06T12:26:00.033Z,62.00
2022-11-06T12:28:39.962Z,62.00
2022-11-06T12:31:26.948Z,61.90
2022-11-06T12:34:09.899Z,61.80
2022-11-06T12:38:08.372Z,61.90
2022-11-06T12:41:31.860Z,61.90
2022-11-06T12:49:20.601Z,61.70
2022-11-06T12:52:33.373Z,61.80
2022-11-06T12:55:47.583Z,61.60
2022-11-06T12:59:06.886Z,61.60
2022-11-06T13:05:52.794Z,61.70
2022-11-06T13:12:40.592Z,61.70
2022-11-06T13:22:56.437Z,62.30
2022-11-06T13:34:55.900Z,63.00
2022-11-06T13:37:43.299Z,62.90
2022-11-06T13:40:38.835Z,63.00
2022-11-06T13:43:34.409Z,63.00
2022-11-06T13:46:39.378Z,63.00
2022-11-06T13:49:18.266Z,63.00
2022-11-06T13:51:57.894Z,62.90
2022-11-06T13:54:40.631Z,63.00
2022-11-06T13:57:51.523Z,62.80
2022-11-06T14:00:20.343Z,62.60
2022-11-06T14:03:57.716Z,62.50
2022-11-06T14:06:33.644Z,62.60
2022-11-06T14:09:07.056Z,62.70
2022-11-06T14:11:39.119Z,62.70
2022-11-06T14:14:12.773Z,62.80
2022-11-06T14:16:45.750Z,63.50
2022-11-06T14:19:21.194Z,62.80
2022-11-06T14:22:30.426Z,62.90
2022-11-06T14:25:02.064Z,62.90
2022-11-06T14:27:29.775Z,62.90
2022-11-06T14:30:15.230Z,63.50
2022-11-06T14:32:46.184Z,62.90
2022-11-06T14:35:35.009Z,63.10
2022-11-06T14:38:29.657Z,63.10
2022-11-06T14:40:58.485Z,63.10
2022-11-06T14:43:36.642Z,63.40
2022-11-06T14:46:07.671Z,63.50
2022-11-06T14:48:41.446Z,63.50
2022-11-06T14:51:11.807Z,63.40
2022-11-06T14:53:53.907Z,63.40
2022-11-06T14:56:26.795Z,63.40
2022-11-06T14:59:02.960Z,63.40
2022-11-06T15:01:34.058Z,63.30
2022-11-06T15:04:12.817Z,63.20
2022-11-06T15:06:47.653Z,63.30
2022-11-06T15:09:24.215Z,63.10
2022-11-06T15:12:05.253Z,63.10
2022-11-06T15:14:32.559Z,63.40
2022-11-06T15:17:14.718Z,63.40
2022-11-06T15:19:48.018Z,63.40
2022-11-06T15:22:17.184Z,63.30
2022-11-06T15:25:17.225Z,63.30
2022-11-06T15:27:55.906Z,63.30
2022-11-06T15:30:23.778Z,63.30
2022-11-06T15:32:54.303Z,63.20
2022-11-06T15:35:27.788Z,63.20
2022-11-06T15:38:11.429Z,63.10
2022-11-06T15:40:41.255Z,63.30
2022-11-06T15:43:30.579Z,63.30
2022-11-06T15:46:24.345Z,63.30
2022-11-06T15:49:17.209Z,63.10
2022-11-06T15:52:02.116Z,63.10
2022-11-06T15:54:38.451Z,63.10
2022-11-06T15:57:28.285Z,63.10
2022-11-06T16:00:19.767Z,63.00
2022-11-06T16:03:02.475Z,62.90
2022-11-06T16:05:34.147Z,62.90
2022-11-06T16:08:02.462Z,62.50
2022-11-06T16:10:30.476Z,62.50
2022-11-06T16:12:58.310Z,62.40
2022-11-06T16:15:44.201Z,62.40
2022-11-06T16:18:30.581Z,62.70
2022-11-06T16:21:19.627Z,62.30
2022-11-06T16:23:54.984Z,62.30
2022-11-06T16:26:35.756Z,62.30
2022-11-06T16:29:17.597Z,62.20
2022-11-06T16:31:46.792Z,62.00
2022-11-06T16:34:42.208Z,61.80
2022-11-06T16:37:19.089Z,61.70
2022-11-06T16:39:53.858Z,61.60
2022-11-06T16:42:36.135Z,61.40
2022-11-06T16:45:20.852Z,61.30
2022-11-06T16:48:06.461Z,61.00
2022-11-06T16:50:46.278Z,60.80
2022-11-06T16:53:20.664Z,60.70
2022-11-06T16:56:07.924Z,60.70
2022-11-06T16:58:53.088Z,60.60
2022-11-06T17:01:21.231Z,60.70
2022-11-06T17:04:01.972Z,60.60
2022-11-06T17:06:35.270Z,60.50
2022-11-06T17:09:24.286Z,60.70
2022-11-06T17:11:54.296Z,60.80
2022-11-06T17:14:22.572Z,61.00
2022-11-06T17:16:59.525Z,60.80
2022-11-06T17:19:30.944Z,60.90
2022-11-06T17:21:58.660Z,61.10
2022-11-06T17:24:41.603Z,61.50
2022-11-06T17:27:09.386Z,61.50
2022-11-06T17:29:37.097Z,61.90
2022-11-06T17:32:05.438Z,62.00
2022-11-06T17:34:32.852Z,61.90
2022-11-06T17:37:00.363Z,62.00
2022-11-06T17:39:27.825Z,62.00
2022-11-06T17:41:55.415Z,62.00
2022-11-06T17:44:22.959Z,61.80
2022-11-06T17:46:50.823Z,61.80
2022-11-06T17:49:18.915Z,61.60
2022-11-06T17:52:00.547Z,61.40
2022-11-06T17:54:34.040Z,61.20
2022-11-06T17:57:04.562Z,61.00
2022-11-06T17:59:32.888Z,61.00
2022-11-06T18:02:00.884Z,60.70
2022-11-06T18:04:31.634Z,60.60
2022-11-06T18:06:59.268Z,60.30
2022-11-06T18:09:26.917Z,60.10
2022-11-06T18:11:55.994Z,60.10
2022-11-06T18:14:25.981Z,59.70
2022-11-06T18:16:54.281Z,59.80
2022-11-06T18:19:24.595Z,59.90
2022-11-06T18:21:52.651Z,59.90
2022-11-06T18:24:20.087Z,59.70
2022-11-06T18:26:47.498Z,60.00
2022-11-06T18:29:16.447Z,59.70
2022-11-06T18:31:44.073Z,59.90
2022-11-06T18:34:20.561Z,59.70
2022-11-06T18:36:50.807Z,60.00
2022-11-06T18:39:18.877Z,60.10
2022-11-06T18:41:46.581Z,59.90
2022-11-06T18:44:17.387Z,59.70
2022-11-06T18:46:48.402Z,60.00
2022-11-06T18:49:16.376Z,60.20
2022-11-06T18:51:44.340Z,60.10
2022-11-06T18:54:12.917Z,60.30
2022-11-06T18:56:40.600Z,60.30
2022-11-06T18:59:13.870Z,60.40
2022-11-06T19:01:41.572Z,60.40
2022-11-06T19:04:11.087Z,60.40
2022-11-06T19:06:39.743Z,60.50
2022-11-06T19:09:08.999Z,60.40
2022-11-06T19:11:36.914Z,60.40
2022-11-06T19:14:04.669Z,60.30
2022-11-06T19:16:32.109Z,60.40
2022-11-06T19:19:06.161Z,60.40
2022-11-06T19:21:35.916Z,60.40
2022-11-06T19:24:05.964Z,60.50
2022-11-06T19:26:36.168Z,60.50
2022-11-06T19:29:07.779Z,60.40
2022-11-06T19:31:37.586Z,60.50
2022-11-06T19:34:07.303Z,60.50
2022-11-06T19:36:35.725Z,60.50
2022-11-06T19:39:03.719Z,60.40
2022-11-06T19:41:31.560Z,60.50
2022-11-06T19:43:59.766Z,60.50
2022-11-06T19:46:33.887Z,60.40
2022-11-06T19:49:05.027Z,60.50
2022-11-06T19:51:33.628Z,60.50
2022-11-06T19:54:05.939Z,60.60
2022-11-06T19:56:34.018Z,61.10
2022-11-06T19:59:02.450Z,60.40
2022-11-06T20:01:30.238Z,60.40
2022-11-06T20:03:57.892Z,60.50
2022-11-06T20:06:27.597Z,60.60
2022-11-06T20:08:55.231Z,60.50
2022-11-06T20:11:22.940Z,60.60
2022-11-06T20:13:50.380Z,60.60
2022-11-06T20:16:21.396Z,60.60
2022-11-06T20:18:54.861Z,60.60
2022-11-06T20:21:23.668Z,60.60
2022-11-06T20:23:51.329Z,60.60
2022-11-06T20:26:19.375Z,60.60
2022-11-06T20:28:47.276Z,60.60
2022-11-06T20:31:19.542Z,60.70
2022-11-06T20:33:47.419Z,60.70
2022-11-06T20:36:25.396Z,60.70
2022-11-06T20:38:56.670Z,60.70
2022-11-06T20:41:25.086Z,60.70
2022-11-06T20:43:53.321Z,60.60
2022-11-06T20:46:22.986Z,60.60
2022-11-06T20:48:51.509Z,60.60
2022-11-06T20:51:26.009Z,60.60
2022-11-06T20:53:54.082Z,60.60
2022-11-06T20:56:25.660Z,60.70
2022-11-06T20:58:57.337Z,60.60
2022-11-06T21:01:28.687Z,60.60
2022-11-06T21:03:57.652Z,60.60
2022-11-06T21:06:26.952Z,60.60
2022-11-06T21:08:55.817Z,60.60
2022-11-06T21:11:27.179Z,60.50
2022-11-06T21:13:55.551Z,60.40
2022-11-06T21:16:28.111Z,60.40
2022-11-06T21:18:55.684Z,60.40
2022-11-06T21:21:26.559Z,60.40
2022-11-06T21:23:55.748Z,60.40
2022-11-06T21:26:29.538Z,60.40
2022-11-06T21:28:57.385Z,60.40
2022-11-06T21:31:27.577Z,60.50
2022-11-06T21:33:57.538Z,60.40
2022-11-06T21:36:37.352Z,60.50
2022-11-06T21:39:12.738Z,60.50
2022-11-06T21:41:40.597Z,60.50
2022-11-06T21:44:08.320Z,60.40
2022-11-06T21:46:36.821Z,60.30
2022-11-06T21:49:05.531Z,60.30
2022-11-06T21:51:33.879Z,60.10
2022-11-06T21:54:20.991Z,59.90
2022-11-06T21:56:50.557Z,59.70
2022-11-06T21:59:20.857Z,59.60
2022-11-06T22:01:48.504Z,59.30
2022-11-06T22:04:16.062Z,59.20
2022-11-06T22:06:44.096Z,59.10
2022-11-06T22:09:13.923Z,58.40
2022-11-06T22:11:44.138Z,58.40
2022-11-06T22:14:17.029Z,58.70
2022-11-06T22:16:47.175Z,58.50
2022-11-06T22:19:16.449Z,58.50
2022-11-06T22:21:43.883Z,58.60
2022-11-06T22:24:13.256Z,58.60
2022-11-06T22:26:41.275Z,58.60
2022-11-06T22:29:15.471Z,58.70
2022-11-06T22:31:43.306Z,58.70
2022-11-06T22:34:12.717Z,58.70
2022-11-06T22:36:41.442Z,58.70
2022-11-06T22:39:11.080Z,58.80
2022-11-06T22:41:39.347Z,58.90
2022-11-06T22:44:08.031Z,59.00
2022-11-06T22:46:36.006Z,58.90
2022-11-06T22:49:04.627Z,59.00
2022-11-06T22:51:34.081Z,59.00
2022-11-06T22:54:03.253Z,59.00
2022-11-06T22:56:32.046Z,59.00
2022-11-06T22:59:03.750Z,59.10
2022-11-06T23:01:36.068Z,59.10
2022-11-06T23:04:16.423Z,59.20
2022-11-06T23:06:47.061Z,59.10
2022-11-06T23:09:15.296Z,59.20
2022-11-06T23:11:47.025Z,59.20
2022-11-06T23:14:14.662Z,59.10
2022-11-06T23:17:00.724Z,59.10
2022-11-06T23:19:31.325Z,59.20
2022-11-06T23:22:17.464Z,59.20
2022-11-06T23:24:45.678Z,59.20
2022-11-06T23:27:14.748Z,59.20
2022-11-06T23:29:42.219Z,59.30
2022-11-06T23:32:09.826Z,59.30
2022-11-06T23:34:37.278Z,59.30
2022-11-06T23:37:04.817Z,59.30
2022-11-06T23:39:32.293Z,59.40
2022-11-06T23:41:59.622Z,60.00
2022-11-06T23:44:45.572Z,59.40
2022-11-06T23:47:13.271Z,59.40
2022-11-06T23:49:40.842Z,59.50
2022-11-06T23:52:08.627Z,59.40
2022-11-06T23:54:36.048Z,59.40
2022-11-06T23:57:03.433Z,59.40
2022-11-06T23:59:30.908Z,59.40
